createdAt,value
2023-03-22T00:00:26.969Z,8.44
2023-03-22T00:01:26.951Z,8.55
2023-03-22T00:02:26.980Z,8.49
2023-03-22T00:03:26.974Z,8.71
2023-03-22T00:04:26.946Z,8.70
2023-03-22T00:05:27.029Z,8.87
2023-03-22T00:06:27.119Z,8.79
2023-03-22T00:07:27.079Z,8.73
2023-03-22T00:08:27.185Z,8.71
2023-03-22T00:09:27.238Z,8.69
2023-03-22T00:10:27.319Z,8.70
2023-03-22T00:11:27.415Z,8.70
2023-03-22T00:12:27.386Z,8.56
2023-03-22T00:13:27.446Z,8.37
2023-03-22T00:14:27.518Z,8.19
2023-03-22T00:15:27.590Z,8.03
2023-03-22T00:16:27.737Z,7.95
2023-03-22T00:17:27.738Z,7.98
2023-03-22T00:18:27.707Z,7.98
2023-03-22T00:19:27.805Z,8.06
2023-03-22T00:20:27.778Z,8.10
2023-03-22T00:21:27.860Z,7.95
2023-03-22T00:22:27.957Z,7.83
2023-03-22T00:23:27.953Z,7.76
2023-03-22T00:24:28.027Z,7.75
2023-03-22T00:25:28.126Z,7.69
2023-03-22T00:26:28.197Z,7.66
2023-03-22T00:27:28.278Z,7.54
2023-03-22T00:28:28.372Z,7.43
2023-03-22T00:29:28.451Z,7.40
2023-03-22T00:30:28.540Z,7.40
2023-03-22T00:31:28.659Z,7.38
2023-03-22T00:32:28.670Z,7.39
2023-03-22T00:33:28.638Z,7.38
2023-03-22T00:34:28.700Z,7.45
2023-03-22T00:35:28.815Z,7.63
2023-03-22T00:36:28.805Z,7.70
2023-03-22T00:37:28.929Z,7.67
2023-03-22T00:38:41.392Z,7.63
2023-03-22T00:39:28.988Z,7.69
2023-03-22T00:40:28.963Z,7.53
2023-03-22T00:41:29.049Z,7.33
2023-03-22T00:42:29.159Z,7.18
2023-03-22T00:43:29.120Z,7.15
2023-03-22T00:44:29.216Z,7.13
2023-03-22T00:45:29.295Z,7.14
2023-03-22T00:46:29.429Z,7.23
2023-03-22T00:47:29.404Z,7.18
2023-03-22T00:48:29.400Z,7.06
2023-03-22T00:49:29.409Z,7.00
2023-03-22T00:50:29.514Z,6.95
2023-03-22T00:51:29.593Z,6.87
2023-03-22T00:52:29.671Z,6.84
2023-03-22T00:53:29.763Z,6.85
2023-03-22T00:54:29.842Z,6.92
2023-03-22T00:55:29.929Z,7.03
2023-03-22T00:56:30.020Z,7.17
2023-03-22T00:57:29.988Z,7.25
2023-03-22T00:58:30.091Z,7.35
2023-03-22T00:59:30.060Z,7.35
2023-03-22T01:00:30.150Z,7.18
2023-03-22T01:01:30.196Z,7.18
2023-03-22T01:02:30.433Z,7.15
2023-03-22T01:03:30.488Z,7.17
2023-03-22T01:04:30.520Z,7.14
2023-03-22T01:05:30.586Z,7.23
2023-03-22T01:06:30.449Z,7.31
2023-03-22T01:07:30.520Z,7.32
2023-03-22T01:08:30.639Z,7.47
2023-03-22T01:09:30.607Z,7.36
2023-03-22T01:10:30.683Z,7.40
2023-03-22T01:11:30.764Z,7.33
2023-03-22T01:12:30.817Z,7.38
2023-03-22T01:13:30.897Z,7.32
2023-03-22T01:14:30.978Z,7.33
2023-03-22T01:15:31.093Z,7.39
2023-03-22T01:16:31.116Z,7.29
2023-03-22T01:17:31.085Z,7.33
2023-03-22T01:18:31.167Z,7.36
2023-03-22T01:19:31.247Z,7.32
2023-03-22T01:20:31.327Z,7.33
2023-03-22T01:21:31.426Z,7.33
2023-03-22T01:22:31.469Z,7.17
2023-03-22T01:23:31.494Z,7.07
2023-03-22T01:24:31.466Z,6.97
2023-03-22T01:25:31.573Z,6.96
2023-03-22T01:26:31.651Z,6.95
2023-03-22T01:27:31.726Z,7.11
2023-03-22T01:28:31.727Z,7.21
2023-03-22T01:29:31.819Z,7.17
2023-03-22T01:30:31.921Z,7.06
2023-03-22T01:31:31.883Z,6.82
2023-03-22T01:32:31.979Z,6.69
2023-03-22T01:33:32.080Z,6.67
2023-03-22T01:34:32.084Z,6.51
2023-03-22T01:35:32.078Z,6.59
2023-03-22T01:36:32.104Z,6.56
2023-03-22T01:37:32.185Z,6.42
2023-03-22T01:38:32.196Z,6.48
2023-03-22T01:39:32.177Z,6.49
2023-03-22T01:40:32.358Z,6.75
2023-03-22T01:41:32.258Z,6.88
2023-03-22T01:42:32.348Z,7.07
2023-03-22T01:43:32.319Z,7.28
2023-03-22T01:44:32.434Z,7.36
2023-03-22T01:45:32.406Z,7.38
2023-03-22T01:46:32.513Z,7.23
2023-03-22T01:47:32.531Z,6.97
2023-03-22T01:48:32.615Z,6.77
2023-03-22T01:49:32.699Z,6.54
2023-03-22T01:50:32.777Z,6.54
2023-03-22T01:51:32.770Z,6.52
2023-03-22T01:52:32.849Z,6.56
2023-03-22T01:53:32.909Z,6.60
2023-03-22T01:54:32.992Z,6.57
2023-03-22T01:55:33.086Z,6.74
2023-03-22T01:56:33.084Z,6.87
2023-03-22T01:57:33.139Z,7.03
2023-03-22T01:58:33.236Z,7.14
2023-03-22T01:59:33.201Z,7.17
2023-03-22T02:00:33.303Z,7.13
2023-03-22T02:01:33.280Z,6.89
2023-03-22T02:02:33.305Z,6.64
2023-03-22T02:03:33.241Z,6.27
2023-03-22T02:04:33.319Z,5.89
2023-03-22T02:05:33.309Z,5.80
2023-03-22T02:06:33.399Z,5.87
2023-03-22T02:07:33.386Z,5.91
2023-03-22T02:08:33.467Z,5.93
2023-03-22T02:09:33.538Z,5.79
2023-03-22T02:10:33.647Z,5.86
2023-03-22T02:11:33.614Z,5.79
2023-03-22T02:12:33.743Z,5.56
2023-03-22T02:13:33.717Z,5.71
2023-03-22T02:14:33.791Z,5.80
2023-03-22T02:15:33.980Z,6.02
2023-03-22T02:16:33.970Z,6.07
2023-03-22T02:17:34.039Z,6.14
2023-03-22T02:18:34.144Z,6.24
2023-03-22T02:19:34.110Z,6.19
2023-03-22T02:20:34.225Z,6.08
2023-03-22T02:21:34.179Z,5.94
2023-03-22T02:22:34.270Z,5.91
2023-03-22T02:23:34.350Z,5.75
2023-03-22T02:24:34.438Z,5.62
2023-03-22T02:25:34.713Z,5.47
2023-03-22T02:26:34.604Z,5.39
2023-03-22T02:27:34.657Z,5.53
2023-03-22T02:28:34.733Z,5.59
2023-03-22T02:29:34.821Z,5.53
2023-03-22T02:30:34.930Z,5.56
2023-03-22T02:31:34.948Z,5.51
2023-03-22T02:32:34.908Z,5.51
2023-03-22T02:33:34.999Z,5.64
2023-03-22T02:34:35.077Z,5.76
2023-03-22T02:35:35.187Z,5.91
2023-03-22T02:36:35.170Z,5.94
2023-03-22T02:37:35.194Z,5.99
2023-03-22T02:38:35.187Z,5.90
2023-03-22T02:39:35.176Z,5.82
2023-03-22T02:40:35.306Z,5.59
2023-03-22T02:41:35.285Z,5.50
2023-03-22T02:42:35.308Z,5.41
2023-03-22T02:43:35.368Z,5.28
2023-03-22T02:44:35.458Z,5.18
2023-03-22T02:45:35.506Z,5.14
2023-03-22T02:46:35.568Z,5.15
2023-03-22T02:47:35.567Z,5.18
2023-03-22T02:48:35.543Z,5.29
2023-03-22T02:49:35.539Z,5.43
2023-03-22T02:50:35.638Z,5.46
2023-03-22T02:51:35.621Z,5.32
2023-03-22T02:52:35.600Z,5.26
2023-03-22T02:53:35.664Z,5.17
2023-03-22T02:54:35.752Z,5.07
2023-03-22T02:55:35.842Z,4.90
2023-03-22T02:56:35.846Z,4.87
2023-03-22T02:57:35.809Z,4.84
2023-03-22T02:58:35.904Z,4.75
2023-03-22T02:59:35.865Z,4.87
2023-03-22T03:00:35.942Z,4.89
2023-03-22T03:01:36.041Z,5.08
2023-03-22T03:02:36.008Z,5.28
2023-03-22T03:03:36.085Z,5.43
2023-03-22T03:04:36.186Z,5.43
2023-03-22T03:05:36.155Z,5.39
2023-03-22T03:06:36.261Z,5.30
2023-03-22T03:07:36.257Z,5.23
2023-03-22T03:08:36.227Z,5.21
2023-03-22T03:09:36.297Z,5.26
2023-03-22T03:10:36.376Z,5.25
2023-03-22T03:11:36.469Z,5.30
2023-03-22T03:12:36.476Z,5.21
2023-03-22T03:13:36.557Z,5.23
2023-03-22T03:14:36.635Z,5.44
2023-03-22T03:15:36.724Z,5.50
2023-03-22T03:16:36.954Z,5.36
2023-03-22T03:17:36.860Z,5.26
2023-03-22T03:18:36.945Z,5.20
2023-03-22T03:19:37.006Z,5.02
2023-03-22T03:20:37.250Z,4.80
2023-03-22T03:21:37.193Z,4.70
2023-03-22T03:22:37.167Z,4.75
2023-03-22T03:23:37.248Z,4.73
2023-03-22T03:24:37.326Z,4.66
2023-03-22T03:25:37.424Z,4.53
2023-03-22T03:26:37.502Z,4.78
2023-03-22T03:27:37.515Z,4.94
2023-03-22T03:28:37.495Z,4.87
2023-03-22T03:29:37.488Z,4.66
2023-03-22T03:30:37.737Z,4.62
2023-03-22T03:31:37.683Z,4.59
2023-03-22T03:32:37.594Z,4.58
2023-03-22T03:33:37.565Z,4.66
2023-03-22T03:34:37.653Z,4.70
2023-03-22T03:35:37.809Z,4.82
2023-03-22T03:36:37.823Z,4.97
2023-03-22T03:37:37.786Z,5.07
2023-03-22T03:38:37.867Z,5.08
2023-03-22T03:39:37.866Z,4.99
2023-03-22T03:40:38.186Z,4.80
2023-03-22T03:41:38.025Z,4.67
2023-03-22T03:42:38.001Z,4.68
2023-03-22T03:43:38.067Z,4.56
2023-03-22T03:44:38.137Z,4.38
2023-03-22T03:45:38.238Z,4.35
2023-03-22T03:46:38.259Z,4.48
2023-03-22T03:47:38.235Z,4.45
2023-03-22T03:48:38.344Z,4.31
2023-03-22T03:49:38.325Z,4.20
2023-03-22T03:50:38.676Z,4.16
2023-03-22T03:51:38.467Z,4.20
2023-03-22T03:52:38.599Z,4.24
2023-03-22T03:53:38.577Z,4.24
2023-03-22T03:54:38.666Z,4.30
2023-03-22T03:55:38.633Z,4.20
2023-03-22T03:56:38.728Z,4.34
2023-03-22T03:57:38.705Z,4.44
2023-03-22T03:58:38.745Z,4.56
2023-03-22T03:59:38.805Z,4.55
2023-03-22T04:00:39.196Z,4.55
2023-03-22T04:01:38.946Z,4.58
2023-03-22T04:02:39.093Z,4.67
2023-03-22T04:03:39.089Z,4.74
2023-03-22T04:04:39.161Z,4.84
2023-03-22T04:05:39.152Z,4.82
2023-03-22T04:06:39.238Z,4.92
2023-03-22T04:07:39.364Z,4.82
2023-03-22T04:08:39.348Z,4.67
2023-03-22T04:09:39.447Z,4.49
2023-03-22T04:10:39.739Z,4.49
2023-03-22T04:11:39.430Z,4.53
2023-03-22T04:12:39.541Z,4.58
2023-03-22T04:13:39.509Z,4.74
2023-03-22T04:14:40.626Z,4.63
2023-03-22T04:15:39.675Z,4.48
2023-03-22T04:16:39.811Z,4.34
2023-03-22T04:17:39.810Z,4.24
2023-03-22T04:18:39.778Z,4.12
2023-03-22T04:19:39.859Z,4.01
2023-03-22T04:20:40.308Z,3.87
2023-03-22T04:21:40.027Z,3.87
2023-03-22T04:22:40.045Z,3.84
2023-03-22T04:23:40.022Z,3.78
2023-03-22T04:24:40.170Z,3.87
2023-03-22T04:25:40.150Z,3.98
2023-03-22T04:26:40.230Z,4.01
2023-03-22T04:27:40.304Z,4.20
2023-03-22T04:28:40.288Z,4.48
2023-03-22T04:29:40.273Z,4.38
2023-03-22T04:30:40.659Z,4.37
2023-03-22T04:31:40.397Z,4.30
2023-03-22T04:32:41.506Z,4.37
2023-03-22T04:33:40.551Z,4.37
2023-03-22T04:34:40.635Z,4.40
2023-03-22T04:35:40.718Z,4.41
2023-03-22T04:36:40.790Z,4.35
2023-03-22T04:37:40.876Z,4.14
2023-03-22T04:38:40.974Z,4.01
2023-03-22T04:39:40.932Z,3.96
2023-03-22T04:40:41.425Z,3.87
2023-03-22T04:41:41.020Z,3.94
2023-03-22T04:42:42.104Z,3.87
2023-03-22T04:43:41.148Z,3.88
2023-03-22T04:44:41.233Z,3.94
2023-03-22T04:45:41.305Z,4.06
2023-03-22T04:46:41.463Z,4.22
2023-03-22T04:47:41.524Z,4.17
2023-03-22T04:48:41.542Z,4.16
2023-03-22T04:49:41.504Z,4.10
2023-03-22T04:50:41.899Z,3.87
2023-03-22T04:51:41.674Z,3.81
2023-03-22T04:52:41.755Z,3.86
2023-03-22T04:53:41.825Z,3.84
2023-03-22T04:54:41.848Z,3.91
2023-03-22T04:55:41.818Z,3.88
2023-03-22T04:56:41.902Z,3.92
2023-03-22T04:57:41.861Z,3.88
2023-03-22T04:58:41.988Z,3.73
2023-03-22T04:59:41.953Z,3.73
2023-03-22T05:00:42.360Z,3.66
2023-03-22T05:01:42.092Z,3.60
2023-03-22T05:02:42.168Z,3.55
2023-03-22T05:03:42.154Z,3.44
2023-03-22T05:04:42.242Z,3.48
2023-03-22T05:05:42.313Z,3.60
2023-03-22T05:06:42.448Z,3.60
2023-03-22T05:07:42.434Z,3.76
2023-03-22T05:08:42.545Z,3.77
2023-03-22T05:09:42.536Z,3.95
2023-03-22T05:10:42.613Z,3.95
2023-03-22T05:11:42.694Z,3.99
2023-03-22T05:12:42.703Z,4.13
2023-03-22T05:13:42.780Z,4.04
2023-03-22T05:14:42.904Z,4.06
2023-03-22T05:15:42.959Z,4.20
2023-03-22T05:16:42.908Z,4.24
2023-03-22T05:17:42.884Z,4.23
2023-03-22T05:18:42.934Z,4.17
2023-03-22T05:19:42.942Z,4.19
2023-03-22T05:20:43.015Z,4.22
2023-03-22T05:21:43.022Z,4.19
2023-03-22T05:22:43.025Z,4.10
2023-03-22T05:23:43.003Z,4.28
2023-03-22T05:24:43.117Z,4.37
2023-03-22T05:25:43.141Z,4.34
2023-03-22T05:26:43.171Z,4.23
2023-03-22T05:27:43.241Z,4.19
2023-03-22T05:28:43.268Z,4.08
2023-03-22T05:29:43.329Z,4.04
2023-03-22T05:30:43.393Z,3.98
2023-03-22T05:31:43.456Z,3.87
2023-03-22T05:32:43.471Z,3.68
2023-03-22T05:33:43.522Z,3.60
2023-03-22T05:34:43.547Z,3.55
2023-03-22T05:35:43.538Z,3.58
2023-03-22T05:36:43.522Z,3.55
2023-03-22T05:37:43.522Z,3.60
2023-03-22T05:38:43.610Z,3.51
2023-03-22T05:39:43.698Z,3.50
2023-03-22T05:40:43.701Z,3.50
2023-03-22T05:41:43.660Z,3.41
2023-03-22T05:42:43.702Z,3.36
2023-03-22T05:43:43.768Z,3.55
2023-03-22T05:44:43.877Z,3.56
2023-03-22T05:45:43.857Z,3.47
2023-03-22T05:46:43.887Z,3.37
2023-03-22T05:47:43.866Z,3.36
2023-03-22T05:48:43.869Z,3.48
2023-03-22T05:49:43.832Z,3.48
2023-03-22T05:50:43.854Z,3.56
2023-03-22T05:51:43.819Z,3.50
2023-03-22T05:52:43.885Z,3.50
2023-03-22T05:53:43.954Z,3.60
2023-03-22T05:54:44.042Z,3.63
2023-03-22T05:55:44.027Z,3.73
2023-03-22T05:56:44.110Z,3.78
2023-03-22T05:57:44.192Z,3.78
2023-03-22T05:58:44.266Z,3.76
2023-03-22T05:59:44.246Z,3.73
2023-03-22T06:00:44.345Z,3.58
2023-03-22T06:01:44.411Z,3.68
2023-03-22T06:02:44.440Z,3.65
2023-03-22T06:03:44.422Z,3.60
2023-03-22T06:04:44.500Z,3.62
2023-03-22T06:05:44.587Z,3.73
2023-03-22T06:06:44.566Z,3.63
2023-03-22T06:07:44.679Z,3.56
2023-03-22T06:08:44.640Z,3.80
2023-03-22T06:09:44.708Z,3.76
2023-03-22T06:10:44.808Z,3.94
2023-03-22T06:11:44.816Z,4.06
2023-03-22T06:12:44.812Z,4.12
2023-03-22T06:13:44.775Z,4.05
2023-03-22T06:14:44.857Z,4.02
2023-03-22T06:15:44.967Z,3.98
2023-03-22T06:16:44.978Z,3.94
2023-03-22T06:17:44.976Z,3.99
2023-03-22T06:18:44.933Z,3.95
2023-03-22T06:19:45.015Z,3.94
2023-03-22T06:20:45.117Z,4.02
2023-03-22T06:21:45.080Z,3.92
2023-03-22T06:22:45.152Z,4.05
2023-03-22T06:23:45.210Z,3.99
2023-03-22T06:24:45.318Z,4.05
2023-03-22T06:25:45.407Z,3.96
2023-03-22T06:26:45.476Z,4.06
2023-03-22T06:27:45.427Z,4.08
2023-03-22T06:28:45.527Z,4.10
2023-03-22T06:29:45.613Z,4.08
2023-03-22T06:30:45.762Z,4.08
2023-03-22T06:31:45.731Z,4.13
2023-03-22T06:32:45.751Z,4.06
2023-03-22T06:33:45.773Z,4.24
2023-03-22T06:34:45.881Z,4.26
2023-03-22T06:35:46.030Z,4.28
2023-03-22T06:36:45.926Z,4.38
2023-03-22T06:37:45.949Z,4.45
2023-03-22T06:38:46.031Z,4.50
2023-03-22T06:39:46.020Z,4.48
2023-03-22T06:40:46.132Z,4.49
2023-03-22T06:41:46.101Z,4.45
2023-03-22T06:42:46.100Z,4.59
2023-03-22T06:43:46.084Z,4.68
2023-03-22T06:44:46.183Z,4.67
2023-03-22T06:45:46.168Z,4.75
2023-03-22T06:46:46.165Z,4.96
2023-03-22T06:47:46.182Z,5.08
2023-03-22T06:48:46.182Z,5.30
2023-03-22T06:49:46.171Z,5.28
2023-03-22T06:50:46.615Z,5.43
2023-03-22T06:51:46.179Z,5.56
2023-03-22T06:52:46.205Z,5.66
2023-03-22T06:53:46.176Z,5.72
2023-03-22T06:54:46.169Z,5.87
2023-03-22T06:55:46.178Z,5.97
2023-03-22T06:56:46.220Z,6.02
2023-03-22T06:57:46.251Z,6.02
2023-03-22T06:58:46.317Z,6.05
2023-03-22T06:59:46.351Z,6.14
2023-03-22T07:00:46.356Z,6.19
2023-03-22T07:01:46.447Z,6.22
2023-03-22T07:02:46.401Z,6.30
2023-03-22T07:03:46.444Z,6.35
2023-03-22T07:04:46.667Z,6.39
2023-03-22T07:05:46.604Z,6.51
2023-03-22T07:06:46.689Z,6.54
2023-03-22T07:07:46.655Z,6.44
2023-03-22T07:08:46.647Z,6.38
2023-03-22T07:09:46.760Z,6.36
2023-03-22T07:10:46.716Z,6.30
2023-03-22T07:11:46.802Z,6.42
2023-03-22T07:12:46.820Z,6.45
2023-03-22T07:13:46.847Z,6.41
2023-03-22T07:14:46.920Z,6.42
2023-03-22T07:15:46.949Z,6.39
2023-03-22T07:16:47.034Z,6.39
2023-03-22T07:17:47.088Z,6.38
2023-03-22T07:18:47.115Z,6.42
2023-03-22T07:19:47.165Z,6.52
2023-03-22T07:20:47.205Z,6.63
2023-03-22T07:21:47.255Z,6.70
2023-03-22T07:22:47.258Z,6.72
2023-03-22T07:23:47.306Z,6.89
2023-03-22T07:24:56.517Z,7.00
2023-03-22T07:25:47.396Z,6.99
2023-03-22T07:26:47.446Z,7.14
2023-03-22T07:27:47.489Z,7.14
2023-03-22T07:28:47.474Z,7.13
2023-03-22T07:29:47.635Z,7.32
2023-03-22T07:30:47.523Z,7.33
2023-03-22T07:31:47.683Z,7.39
2023-03-22T07:32:47.715Z,7.43
2023-03-22T07:33:47.795Z,7.47
2023-03-22T07:34:48.837Z,7.51
2023-03-22T07:35:47.920Z,7.63
2023-03-22T07:36:47.916Z,7.63
2023-03-22T07:37:47.906Z,7.72
2023-03-22T07:38:47.999Z,7.73
2023-03-22T07:39:48.055Z,7.85
2023-03-22T07:40:48.090Z,7.94
2023-03-22T07:41:48.108Z,8.01
2023-03-22T07:42:48.165Z,8.08
2023-03-22T07:43:55.409Z,8.10
2023-03-22T07:44:48.302Z,8.15
2023-03-22T07:45:48.358Z,8.31
2023-03-22T07:46:48.489Z,8.44
2023-03-22T07:47:48.536Z,8.56
2023-03-22T07:48:48.533Z,8.66
2023-03-22T07:49:48.640Z,8.63
2023-03-22T07:50:48.711Z,8.67
2023-03-22T07:51:48.828Z,8.76
2023-03-22T07:52:48.833Z,8.85
2023-03-22T07:53:48.893Z,8.84
2023-03-22T07:54:48.912Z,8.92
2023-03-22T07:55:49.003Z,9.02
2023-03-22T07:56:49.093Z,9.19
2023-03-22T07:57:49.108Z,9.31
2023-03-22T07:58:49.132Z,9.39
2023-03-22T07:59:49.202Z,9.43
2023-03-22T08:00:49.235Z,9.46
2023-03-22T08:01:49.492Z,9.46
2023-03-22T08:02:49.401Z,9.50
2023-03-22T08:03:49.345Z,9.59
2023-03-22T08:04:51.903Z,9.66
2023-03-22T08:05:49.489Z,9.76
2023-03-22T08:06:49.616Z,9.77
2023-03-22T08:07:49.618Z,9.89
2023-03-22T08:08:49.665Z,9.82
2023-03-22T08:09:49.737Z,9.98
2023-03-22T08:10:49.738Z,10.05
2023-03-22T08:11:49.804Z,10.16
2023-03-22T08:12:49.843Z,10.20
2023-03-22T08:13:49.906Z,10.44
2023-03-22T08:14:49.962Z,10.53
2023-03-22T08:15:50.030Z,10.61
2023-03-22T08:16:50.093Z,10.71
2023-03-22T08:17:50.156Z,10.69
2023-03-22T08:18:50.235Z,10.74
2023-03-22T08:19:50.271Z,10.82
2023-03-22T08:20:50.302Z,10.94
2023-03-22T08:21:50.431Z,11.22
2023-03-22T08:22:50.577Z,11.26
2023-03-22T08:23:50.546Z,11.36
2023-03-22T08:24:50.564Z,11.33
2023-03-22T08:25:50.601Z,11.47
2023-03-22T08:26:50.674Z,11.66
2023-03-22T08:27:50.690Z,11.75
2023-03-22T08:28:50.766Z,11.94
2023-03-22T08:29:50.766Z,12.00
2023-03-22T08:30:50.793Z,11.95
2023-03-22T08:31:50.895Z,12.03
2023-03-22T08:32:50.923Z,12.18
2023-03-22T08:33:50.962Z,12.36
2023-03-22T08:34:51.011Z,12.54
2023-03-22T08:35:51.117Z,12.58
2023-03-22T08:36:51.061Z,12.68
2023-03-22T08:37:51.519Z,12.64
2023-03-22T08:38:51.144Z,12.67
2023-03-22T08:39:51.170Z,12.72
2023-03-22T08:40:51.214Z,12.73
2023-03-22T08:41:51.252Z,12.85
2023-03-22T08:42:51.308Z,13.04
2023-03-22T08:43:51.372Z,13.15
2023-03-22T08:44:51.411Z,13.39
2023-03-22T08:45:51.454Z,13.44
2023-03-22T08:46:51.525Z,13.47
2023-03-22T08:47:51.582Z,13.54
2023-03-22T08:48:51.630Z,13.57
2023-03-22T08:49:51.683Z,13.65
2023-03-22T08:50:51.722Z,13.79
2023-03-22T08:51:51.800Z,13.83
2023-03-22T08:52:51.840Z,13.85
2023-03-22T08:53:51.902Z,13.79
2023-03-22T08:54:51.947Z,13.90
2023-03-22T08:55:51.965Z,13.97
2023-03-22T08:56:52.024Z,13.89
2023-03-22T08:57:52.062Z,13.92
2023-03-22T08:58:52.142Z,13.95
2023-03-22T08:59:52.226Z,14.04
2023-03-22T09:00:52.494Z,14.14
2023-03-22T09:01:52.477Z,14.12
2023-03-22T09:02:52.351Z,14.15
2023-03-22T09:03:52.407Z,14.23
2023-03-22T09:04:52.531Z,14.17
2023-03-22T09:05:52.510Z,14.29
2023-03-22T09:06:52.548Z,14.35
2023-03-22T09:07:52.635Z,14.40
2023-03-22T09:08:52.703Z,14.37
2023-03-22T09:09:52.730Z,14.29
2023-03-22T09:10:52.781Z,14.26
2023-03-22T09:11:52.827Z,14.28
2023-03-22T09:12:52.875Z,14.53
2023-03-22T09:13:52.956Z,14.70
2023-03-22T09:14:53.858Z,14.94
2023-03-22T09:15:53.074Z,14.60
2023-03-22T09:16:53.025Z,14.55
2023-03-22T09:17:53.060Z,14.54
2023-03-22T09:18:53.125Z,14.69
2023-03-22T09:20:05.877Z,14.65
2023-03-22T09:20:53.139Z,14.62
2023-03-22T09:21:53.178Z,14.47
2023-03-22T09:22:53.199Z,14.59
2023-03-22T09:23:53.250Z,14.62
2023-03-22T09:24:53.308Z,14.63
2023-03-22T09:25:53.376Z,14.88
2023-03-22T09:26:53.401Z,14.91
2023-03-22T09:27:53.456Z,15.00
2023-03-22T09:28:53.478Z,14.96
2023-03-22T09:29:53.510Z,14.72
2023-03-22T09:30:53.560Z,14.73
2023-03-22T09:31:53.597Z,14.66
2023-03-22T09:32:53.622Z,14.60
2023-03-22T09:33:53.661Z,14.73
2023-03-22T09:34:53.707Z,14.70
2023-03-22T09:35:53.795Z,14.84
2023-03-22T09:36:54.313Z,14.88
2023-03-22T09:37:53.900Z,14.81
2023-03-22T09:38:53.948Z,14.79
2023-03-22T09:39:54.010Z,14.94
2023-03-22T09:40:54.029Z,15.09
2023-03-22T09:41:54.078Z,15.17
2023-03-22T09:42:54.107Z,15.09
2023-03-22T09:43:54.149Z,15.02
2023-03-22T09:44:54.188Z,15.04
2023-03-22T09:45:54.314Z,15.19
2023-03-22T09:46:54.223Z,15.25
2023-03-22T09:47:54.306Z,15.36
2023-03-22T09:48:54.329Z,15.29
2023-03-22T09:49:54.380Z,15.33
2023-03-22T09:50:54.464Z,15.35
2023-03-22T09:51:55.560Z,15.36
2023-03-22T09:52:54.476Z,15.46
2023-03-22T09:53:54.520Z,15.70
2023-03-22T09:54:54.539Z,15.97
2023-03-22T09:55:54.590Z,15.94
2023-03-22T09:56:54.639Z,15.90
2023-03-22T09:57:54.661Z,15.84
2023-03-22T09:58:54.677Z,15.88
2023-03-22T09:59:54.701Z,16.08
2023-03-22T10:00:54.868Z,16.04
2023-03-22T10:01:56.145Z,15.86
2023-03-22T10:02:54.849Z,15.82
2023-03-22T10:03:54.953Z,15.75
2023-03-22T10:04:54.922Z,15.64
2023-03-22T10:05:54.960Z,15.86
2023-03-22T10:06:54.976Z,15.97
2023-03-22T10:07:55.013Z,16.04
2023-03-22T10:08:55.039Z,16.26
2023-03-22T10:09:55.080Z,16.16
2023-03-22T10:10:55.142Z,16.38
2023-03-22T10:11:55.170Z,16.43
2023-03-22T10:12:55.194Z,16.47
2023-03-22T10:13:56.234Z,16.29
2023-03-22T10:14:55.222Z,16.15
2023-03-22T10:15:55.338Z,16.13
2023-03-22T10:16:56.506Z,16.26
2023-03-22T10:17:55.360Z,16.09
2023-03-22T10:18:55.394Z,16.16
2023-03-22T10:19:55.446Z,16.28
2023-03-22T10:20:55.498Z,16.33
2023-03-22T10:21:55.551Z,16.56
2023-03-22T10:22:55.572Z,16.49
2023-03-22T10:23:55.603Z,16.50
2023-03-22T10:24:55.656Z,16.49
2023-03-22T10:25:55.736Z,16.47
2023-03-22T10:26:55.793Z,16.36
2023-03-22T10:27:57.849Z,16.08
2023-03-22T10:28:55.872Z,16.23
2023-03-22T10:29:55.914Z,16.38
2023-03-22T10:30:55.976Z,16.69
2023-03-22T10:31:56.058Z,16.86
2023-03-22T10:32:58.076Z,16.93
2023-03-22T10:33:56.192Z,16.81
2023-03-22T10:34:56.234Z,16.90
2023-03-22T10:35:56.309Z,17.16
2023-03-22T10:36:56.323Z,17.04
2023-03-22T10:37:56.355Z,17.06
2023-03-22T10:38:56.407Z,17.20
2023-03-22T10:39:56.432Z,17.08
2023-03-22T10:40:56.495Z,16.81
2023-03-22T10:41:58.052Z,16.69
2023-03-22T10:42:56.546Z,16.68
2023-03-22T10:43:56.612Z,16.84
2023-03-22T10:44:56.634Z,16.83
2023-03-22T10:45:56.677Z,16.86
2023-03-22T10:46:56.748Z,16.99
2023-03-22T10:47:57.728Z,17.19
2023-03-22T10:48:56.696Z,17.06
2023-03-22T10:49:56.766Z,17.22
2023-03-22T10:50:56.788Z,17.27
2023-03-22T10:51:56.732Z,17.20
2023-03-22T10:52:56.773Z,17.06
2023-03-22T10:53:56.777Z,16.97
2023-03-22T10:55:00.249Z,16.96
2023-03-22T10:55:56.900Z,16.83
2023-03-22T10:56:56.941Z,16.96
2023-03-22T10:57:56.955Z,16.93
2023-03-22T10:58:56.987Z,16.78
2023-03-22T10:59:57.002Z,16.69
2023-03-22T11:00:57.232Z,16.75
2023-03-22T11:01:57.290Z,16.96
2023-03-22T11:02:57.119Z,16.74
2023-03-22T11:03:57.081Z,16.47
2023-03-22T11:04:57.115Z,16.51
2023-03-22T11:05:57.132Z,16.41
2023-03-22T11:06:57.161Z,16.33
2023-03-22T11:07:57.171Z,16.33
2023-03-22T11:08:57.334Z,16.53
2023-03-22T11:09:57.252Z,16.71
2023-03-22T11:10:57.310Z,16.68
2023-03-22T11:11:57.352Z,16.83
2023-03-22T11:12:57.393Z,16.93
2023-03-22T11:13:57.375Z,16.83
2023-03-22T11:14:57.402Z,16.87
2023-03-22T11:15:57.431Z,17.09
2023-03-22T11:16:57.491Z,17.45
2023-03-22T11:17:57.493Z,17.70
2023-03-22T11:18:57.527Z,17.94
2023-03-22T11:19:57.566Z,18.01
2023-03-22T11:20:57.581Z,17.97
2023-03-22T11:21:57.627Z,17.86
2023-03-22T11:22:57.641Z,17.85
2023-03-22T11:23:57.656Z,17.97
2023-03-22T11:24:57.670Z,18.25
2023-03-22T11:25:57.696Z,18.08
2023-03-22T11:26:57.737Z,18.33
2023-03-22T11:27:57.744Z,18.60
2023-03-22T11:28:57.773Z,18.41
2023-03-22T11:29:57.793Z,18.34
2023-03-22T11:30:57.812Z,18.38
2023-03-22T11:31:57.966Z,18.35
2023-03-22T11:32:57.984Z,18.01
2023-03-22T11:33:58.003Z,17.97
2023-03-22T11:34:58.025Z,18.31
2023-03-22T11:35:58.070Z,18.58
2023-03-22T11:36:58.176Z,18.74
2023-03-22T11:37:58.189Z,18.68
2023-03-22T11:38:58.187Z,18.49
2023-03-22T11:39:58.205Z,18.22
2023-03-22T11:40:58.226Z,18.13
2023-03-22T11:41:58.247Z,18.10
2023-03-22T11:42:58.530Z,18.05
2023-03-22T11:43:58.355Z,18.05
2023-03-22T11:44:58.370Z,18.16
2023-03-22T11:45:58.429Z,18.01
2023-03-22T11:46:58.411Z,18.01
2023-03-22T11:47:58.486Z,18.08
2023-03-22T11:49:00.979Z,18.01
2023-03-22T11:49:58.512Z,18.01
2023-03-22T11:50:58.626Z,18.00
2023-03-22T11:51:58.665Z,18.01
2023-03-22T11:52:58.707Z,18.10
2023-03-22T11:53:58.740Z,18.11
2023-03-22T11:54:58.755Z,18.07
2023-03-22T11:55:58.751Z,18.25
2023-03-22T11:56:58.782Z,18.35
2023-03-22T11:57:58.820Z,18.35
2023-03-22T11:58:58.851Z,18.52
2023-03-22T11:59:58.859Z,18.62
2023-03-22T12:00:58.884Z,18.75
2023-03-22T12:01:58.901Z,18.92
2023-03-22T12:02:58.996Z,18.80
2023-03-22T12:03:58.989Z,18.71
2023-03-22T12:04:59.082Z,18.68
2023-03-22T12:05:59.020Z,18.71
2023-03-22T12:06:59.044Z,18.33
2023-03-22T12:07:59.062Z,18.05
2023-03-22T12:08:59.165Z,18.04
2023-03-22T12:10:00.239Z,18.05
2023-03-22T12:10:59.242Z,18.20
2023-03-22T12:11:59.285Z,18.15
2023-03-22T12:12:59.304Z,18.15
2023-03-22T12:13:59.304Z,18.34
2023-03-22T12:14:59.394Z,18.49
2023-03-22T12:15:59.468Z,18.63
2023-03-22T12:16:59.479Z,18.77
2023-03-22T12:17:59.597Z,18.92
2023-03-22T12:18:59.545Z,19.04
2023-03-22T12:19:59.536Z,19.08
2023-03-22T12:20:59.549Z,18.93
2023-03-22T12:21:59.546Z,19.39
2023-03-22T12:22:59.579Z,19.15
2023-03-22T12:23:59.616Z,19.21
2023-03-22T12:24:59.652Z,19.37
2023-03-22T12:25:59.639Z,19.22
2023-03-22T12:26:59.665Z,18.93
2023-03-22T12:27:59.695Z,18.71
2023-03-22T12:28:59.746Z,18.66
2023-03-22T12:29:59.781Z,18.70
2023-03-22T12:30:59.827Z,18.65
2023-03-22T12:31:59.999Z,18.73
2023-03-22T12:33:00.084Z,18.92
2023-03-22T12:33:59.953Z,18.81
2023-03-22T12:35:15.945Z,19.08
2023-03-22T12:36:00.142Z,19.12
2023-03-22T12:37:00.069Z,19.37
2023-03-22T12:38:00.133Z,19.49
2023-03-22T12:39:00.179Z,19.55
2023-03-22T12:40:00.201Z,19.89
2023-03-22T12:41:00.214Z,19.95
2023-03-22T12:42:00.232Z,20.02
2023-03-22T12:43:00.500Z,20.00
2023-03-22T12:44:00.302Z,19.96
2023-03-22T12:45:05.245Z,20.22
2023-03-22T12:46:00.391Z,20.29
2023-03-22T12:47:00.499Z,20.16
2023-03-22T12:48:00.455Z,19.94
2023-03-22T12:49:00.524Z,19.99
2023-03-22T12:50:00.465Z,19.67
2023-03-22T12:51:00.465Z,19.70
2023-03-22T12:52:00.476Z,19.81
2023-03-22T12:53:00.513Z,19.73
2023-03-22T12:54:00.553Z,19.94
2023-03-22T12:55:00.575Z,19.92
2023-03-22T12:56:00.593Z,19.99
2023-03-22T12:57:00.635Z,20.10
2023-03-22T12:58:00.682Z,20.25
2023-03-22T12:59:00.744Z,20.37
2023-03-22T13:00:00.767Z,20.56
2023-03-22T13:01:00.884Z,20.74
2023-03-22T13:02:00.835Z,20.75
2023-03-22T13:03:01.041Z,21.07
2023-03-22T13:04:01.008Z,21.48
2023-03-22T13:05:00.981Z,21.58
2023-03-22T13:06:01.057Z,21.20
2023-03-22T13:07:01.077Z,21.11
2023-03-22T13:08:01.123Z,20.93
2023-03-22T13:09:01.128Z,20.75